createdAt,value
2018-09-24T00:02:24.013Z,8.70
2018-09-24T00:04:52.798Z,8.64
2018-09-24T00:07:22.260Z,8.63
2018-09-24T00:09:51.153Z,8.63
2018-09-24T00:12:20.015Z,8.58
2018-09-24T00:14:48.836Z,8.58
2018-09-24T00:17:17.666Z,8.59
2018-09-24T00:19:46.563Z,8.56
2018-09-24T00:22:15.558Z,8.58
2018-09-24T00:24:44.343Z,8.56
2018-09-24T00:27:13.106Z,8.57
2018-09-24T00:29:43.198Z,8.57
2018-09-24T00:32:11.994Z,8.50
2018-09-24T00:34:40.867Z,8.43
2018-09-24T00:37:09.788Z,8.47
2018-09-24T00:39:38.681Z,8.42
2018-09-24T00:42:07.444Z,8.48
2018-09-24T00:44:36.256Z,8.51
2018-09-24T00:47:05.107Z,8.51
2018-09-24T00:49:33.939Z,8.60
2018-09-24T00:52:02.759Z,8.62
2018-09-24T00:54:31.674Z,8.60
2018-09-24T00:57:00.727Z,8.56
2018-09-24T00:59:29.562Z,8.52
2018-09-24T01:01:58.358Z,8.51
2018-09-24T01:04:27.134Z,8.59
2018-09-24T01:06:56.040Z,8.56
2018-09-24T01:09:25.131Z,8.57
2018-09-24T01:11:54.027Z,8.57
2018-09-24T01:14:22.869Z,8.63
2018-09-24T01:16:51.683Z,8.61
2018-09-24T01:19:20.535Z,8.60
2018-09-24T01:24:41.654Z,8.64
2018-09-24T01:27:10.487Z,8.73
2018-09-24T01:29:42.698Z,8.75
2018-09-24T01:32:11.641Z,8.66
2018-09-24T01:34:40.448Z,8.68
2018-09-24T01:37:09.343Z,8.59
2018-09-24T01:39:38.235Z,8.64
2018-09-24T01:42:07.092Z,8.60
2018-09-24T01:44:35.889Z,8.60
2018-09-24T01:47:05.082Z,8.61
2018-09-24T01:49:33.843Z,8.56
2018-09-24T01:52:02.681Z,8.60
2018-09-24T01:54:31.827Z,8.58
2018-09-24T01:57:00.628Z,8.60
2018-09-24T01:59:29.830Z,8.57
2018-09-24T02:01:58.675Z,8.59
2018-09-24T02:04:27.483Z,8.60
2018-09-24T02:07:01.000Z,8.57
2018-09-24T02:09:30.224Z,8.58
2018-09-24T02:12:04.050Z,8.61
2018-09-24T02:14:33.860Z,8.58
2018-09-24T02:17:03.023Z,8.58
2018-09-24T02:19:32.916Z,8.59
2018-09-24T02:22:02.023Z,8.59
2018-09-24T02:24:31.200Z,8.59
2018-09-24T02:26:59.978Z,8.60
2018-09-24T02:29:28.767Z,8.67
2018-09-24T02:31:57.606Z,8.66
2018-09-24T02:34:28.504Z,8.65
2018-09-24T02:36:57.670Z,8.66
2018-09-24T02:39:29.263Z,8.72
2018-09-24T02:41:59.083Z,8.71
2018-09-24T02:44:28.619Z,8.73
2018-09-24T02:46:57.541Z,8.73
2018-09-24T02:49:26.398Z,8.77
2018-09-24T02:51:55.347Z,8.79
2018-09-24T02:54:24.207Z,8.78
2018-09-24T02:56:53.092Z,8.94
2018-09-24T02:59:21.943Z,9.06
2018-09-24T03:01:50.918Z,9.09
2018-09-24T03:04:20.759Z,9.20
2018-09-24T03:06:49.619Z,9.20
2018-09-24T03:09:19.059Z,9.25
2018-09-24T03:11:48.217Z,9.30
2018-09-24T03:14:24.011Z,9.33
2018-09-24T03:16:53.602Z,9.23
2018-09-24T03:19:22.743Z,9.34
2018-09-24T03:21:51.643Z,9.32
2018-09-24T03:24:20.424Z,9.33
2018-09-24T03:26:49.382Z,9.37
2018-09-24T03:29:25.592Z,9.39
2018-09-24T03:31:54.464Z,9.37
2018-09-24T03:34:23.275Z,9.43
2018-09-24T03:36:53.103Z,9.37
2018-09-24T03:39:21.981Z,9.38
2018-09-24T03:41:51.411Z,9.34
2018-09-24T03:44:20.266Z,9.33
2018-09-24T03:46:49.272Z,9.23
2018-09-24T03:49:18.130Z,9.22
2018-09-24T03:51:46.984Z,9.15
2018-09-24T03:54:15.850Z,9.08
2018-09-24T03:56:47.298Z,9.16
2018-09-24T03:59:16.443Z,9.22
2018-09-24T04:01:45.364Z,9.14
2018-09-24T04:04:19.461Z,9.08
2018-09-24T04:06:53.406Z,9.00
2018-09-24T04:09:27.451Z,8.99
2018-09-24T04:12:01.540Z,9.01
2018-09-24T04:14:35.608Z,8.95
2018-09-24T04:17:09.763Z,8.95
2018-09-24T04:19:43.867Z,8.99
2018-09-24T04:22:17.940Z,9.05
2018-09-24T04:24:52.037Z,9.18
2018-09-24T04:27:26.026Z,9.27
2018-09-24T04:30:00.760Z,9.35
2018-09-24T04:32:35.072Z,9.33
2018-09-24T04:35:09.124Z,9.25
2018-09-24T04:37:43.168Z,9.26
2018-09-24T04:40:17.104Z,9.23
2018-09-24T04:42:51.055Z,9.22
2018-09-24T04:45:24.974Z,9.27
2018-09-24T04:47:58.843Z,9.21
2018-09-24T04:50:32.730Z,9.15
2018-09-24T04:53:06.697Z,9.28
2018-09-24T04:55:40.795Z,9.20
2018-09-24T04:58:14.720Z,9.12
2018-09-24T05:00:48.864Z,9.07
2018-09-24T05:03:22.806Z,9.08
2018-09-24T05:05:56.901Z,9.07
2018-09-24T05:08:30.784Z,9.02
2018-09-24T05:11:04.707Z,8.94
2018-09-24T05:13:39.954Z,8.97
2018-09-24T05:16:14.212Z,9.00
2018-09-24T05:18:48.352Z,9.01
2018-09-24T05:21:22.609Z,9.07
2018-09-24T05:23:56.694Z,9.18
2018-09-24T05:26:31.097Z,9.30
2018-09-24T05:29:05.113Z,9.33
2018-09-24T05:31:39.156Z,9.35
2018-09-24T05:34:13.256Z,9.43
2018-09-24T05:36:47.308Z,9.65
2018-09-24T05:39:21.318Z,9.91
2018-09-24T05:41:55.279Z,9.92
2018-09-24T05:44:29.347Z,10.33
2018-09-24T05:47:03.476Z,10.53
2018-09-24T05:49:37.443Z,10.39
2018-09-24T05:52:11.394Z,10.15
2018-09-24T05:54:45.379Z,10.56
2018-09-24T05:57:19.468Z,10.17
2018-09-24T05:59:54.223Z,10.06
2018-09-24T06:02:28.474Z,9.95
2018-09-24T06:05:02.652Z,9.81
2018-09-24T06:07:36.873Z,9.92
2018-09-24T06:10:12.491Z,10.21
2018-09-24T06:13:17.572Z,10.81
2018-09-24T06:15:52.297Z,11.28
2018-09-24T06:18:26.772Z,11.51
2018-09-24T06:21:02.405Z,11.29
2018-09-24T06:23:38.800Z,11.43
2018-09-24T06:26:13.311Z,11.67
2018-09-24T06:28:49.744Z,12.17
2018-09-24T06:31:28.300Z,11.90
2018-09-24T06:34:03.259Z,12.10
2018-09-24T06:36:37.312Z,11.99
2018-09-24T06:39:13.246Z,11.63
2018-09-24T06:41:47.730Z,12.07
2018-09-24T06:44:21.671Z,12.11
2018-09-24T06:46:56.604Z,12.31
2018-09-24T06:49:31.279Z,12.98
2018-09-24T06:52:06.274Z,13.69
2018-09-24T06:54:40.947Z,12.88
2018-09-24T06:57:15.488Z,12.90
2018-09-24T06:59:49.703Z,12.71
2018-09-24T07:02:23.925Z,13.04
2018-09-24T07:04:58.864Z,13.35
2018-09-24T07:07:34.230Z,13.32
2018-09-24T07:10:08.341Z,12.52
2018-09-24T07:12:42.514Z,12.06
2018-09-24T07:15:16.493Z,11.78
2018-09-24T07:17:50.944Z,11.65
2018-09-24T07:20:25.046Z,12.02
2018-09-24T07:22:58.989Z,11.80
2018-09-24T07:25:33.038Z,12.30
2018-09-24T07:28:06.993Z,12.49
2018-09-24T07:30:40.901Z,12.85
2018-09-24T07:33:14.891Z,13.51
2018-09-24T07:35:48.840Z,13.77
2018-09-24T07:38:22.779Z,13.59
2018-09-24T07:40:57.270Z,13.49
2018-09-24T07:43:31.654Z,13.88
2018-09-24T07:48:46.006Z,12.88
2018-09-24T07:51:20.094Z,13.63
2018-09-24T07:53:54.099Z,13.81
2018-09-24T07:56:29.383Z,14.28
2018-09-24T07:59:03.521Z,13.31
2018-09-24T08:01:37.554Z,12.88
2018-09-24T08:04:11.515Z,12.60
2018-09-24T08:06:46.136Z,12.32
2018-09-24T08:09:20.321Z,12.15
2018-09-24T08:11:56.608Z,12.60
2018-09-24T08:17:38.444Z,13.49
2018-09-24T08:20:13.340Z,13.05
2018-09-24T08:22:47.711Z,12.80
2018-09-24T08:25:21.837Z,12.98
2018-09-24T08:27:57.723Z,12.84
2018-09-24T08:30:34.063Z,12.55
2018-09-24T08:33:08.211Z,12.08
2018-09-24T08:35:42.272Z,11.75
2018-09-24T08:38:16.365Z,11.92
2018-09-24T08:40:50.341Z,11.83
2018-09-24T08:43:24.254Z,11.84
2018-09-24T08:45:58.225Z,12.08
2018-09-24T08:48:33.208Z,12.15
2018-09-24T08:51:07.318Z,12.31
2018-09-24T08:53:41.274Z,12.33
2018-09-24T08:56:15.290Z,11.87
2018-09-24T08:58:49.252Z,11.84
2018-09-24T09:01:23.227Z,12.42
2018-09-24T09:04:00.701Z,12.01
2018-09-24T09:06:37.143Z,11.49
2018-09-24T09:09:15.315Z,11.38
2018-09-24T09:11:49.718Z,11.34
2018-09-24T09:14:24.007Z,11.39
2018-09-24T09:17:00.515Z,11.88
2018-09-24T09:19:36.517Z,11.91
2018-09-24T09:22:10.834Z,11.42
2018-09-24T09:24:46.317Z,12.68
2018-09-24T09:27:20.385Z,12.73
2018-09-24T09:29:54.510Z,13.20
2018-09-24T09:32:28.444Z,13.31
2018-09-24T09:35:03.024Z,13.47
2018-09-24T09:37:38.677Z,13.29
2018-09-24T09:40:12.936Z,13.18
2018-09-24T09:42:48.848Z,12.92
2018-09-24T09:45:22.783Z,12.89
2018-09-24T09:47:56.887Z,12.61
2018-09-24T09:50:31.257Z,12.31
2018-09-24T09:53:05.218Z,12.72
2018-09-24T09:55:39.353Z,13.52
2018-09-24T09:58:13.503Z,13.91
2018-09-24T10:00:47.465Z,14.06
2018-09-24T10:03:27.130Z,13.52
2018-09-24T10:06:01.309Z,13.37
2018-09-24T10:08:35.675Z,13.76
2018-09-24T10:11:10.440Z,14.30
2018-09-24T10:13:44.544Z,13.70
2018-09-24T10:16:18.494Z,14.14
2018-09-24T10:18:52.637Z,13.71
2018-09-24T10:21:29.649Z,13.38
2018-09-24T10:24:04.237Z,13.81
2018-09-24T10:26:38.322Z,14.04
2018-09-24T10:29:12.645Z,13.44
2018-09-24T10:31:47.158Z,13.62
2018-09-24T10:34:21.271Z,14.10
2018-09-24T10:36:55.444Z,14.00
2018-09-24T10:39:30.655Z,14.12
2018-09-24T10:42:04.534Z,13.40
2018-09-24T10:44:40.655Z,12.98
2018-09-24T10:47:14.815Z,13.01
2018-09-24T10:49:49.204Z,13.55
2018-09-24T10:52:23.197Z,13.93
2018-09-24T10:54:57.305Z,13.96
2018-09-24T10:57:31.451Z,14.27
2018-09-24T11:00:05.590Z,13.49
2018-09-24T11:02:39.425Z,13.15
2018-09-24T11:05:13.432Z,13.05
2018-09-24T11:07:47.439Z,12.81
2018-09-24T11:10:21.504Z,13.38
2018-09-24T11:12:55.430Z,13.49
2018-09-24T11:15:29.871Z,13.74
2018-09-24T11:18:04.242Z,14.21
2018-09-24T11:20:38.931Z,14.37
2018-09-24T11:23:13.145Z,15.12
2018-09-24T11:25:47.034Z,14.91
2018-09-24T11:28:20.943Z,14.56
2018-09-24T11:30:54.954Z,14.44
2018-09-24T11:33:29.099Z,14.16
2018-09-24T11:36:03.141Z,13.67
2018-09-24T11:38:40.204Z,13.49
2018-09-24T11:41:14.324Z,13.68
2018-09-24T11:43:51.146Z,14.16
2018-09-24T11:46:25.305Z,14.43
2018-09-24T11:49:00.040Z,14.24
2018-09-24T11:51:37.730Z,14.33
2018-09-24T11:54:11.803Z,13.86
2018-09-24T11:56:45.829Z,13.29
2018-09-24T11:59:19.819Z,12.90
2018-09-24T12:01:53.782Z,12.66
2018-09-24T12:04:30.976Z,12.56
2018-09-24T12:07:06.247Z,12.59
2018-09-24T12:09:44.116Z,12.58
2018-09-24T12:12:19.955Z,12.53
2018-09-24T12:14:53.978Z,12.69
2018-09-24T12:17:28.403Z,12.80
2018-09-24T12:20:03.100Z,13.23
2018-09-24T12:22:37.088Z,13.36
2018-09-24T12:25:11.208Z,13.42
2018-09-24T12:27:45.052Z,13.32
2018-09-24T12:30:19.752Z,13.65
2018-09-24T12:32:53.717Z,13.71
2018-09-24T12:35:27.581Z,13.89
2018-09-24T12:38:01.534Z,13.97
2018-09-24T12:40:35.325Z,14.05
2018-09-24T12:43:09.282Z,14.15
2018-09-24T12:45:43.955Z,13.86
2018-09-24T12:48:18.110Z,14.18
2018-09-24T12:50:52.234Z,14.06
2018-09-24T12:56:06.056Z,14.35
2018-09-24T12:58:40.033Z,14.13
2018-09-24T13:01:14.021Z,13.76
2018-09-24T13:03:48.082Z,13.63
2018-09-24T13:06:22.090Z,13.24
2018-09-24T13:08:55.976Z,13.11
2018-09-24T13:11:29.948Z,12.64
2018-09-24T13:14:03.839Z,13.06
2018-09-24T13:16:38.301Z,13.04
2018-09-24T13:19:13.767Z,13.09
2018-09-24T13:21:48.240Z,12.66
2018-09-24T13:24:22.471Z,12.12
2018-09-24T13:26:56.517Z,11.63
2018-09-24T13:29:30.590Z,10.94
2018-09-24T13:32:04.547Z,9.76
2018-09-24T13:34:38.737Z,9.51
2018-09-24T13:37:13.317Z,9.52
2018-09-24T13:39:47.248Z,9.55
2018-09-24T13:42:21.217Z,9.45
2018-09-24T13:44:55.267Z,9.53
2018-09-24T13:47:29.345Z,9.67
2018-09-24T13:50:04.276Z,9.78
2018-09-24T13:52:38.357Z,9.83
2018-09-24T13:55:14.654Z,10.10
2018-09-24T13:57:48.759Z,10.50
2018-09-24T14:00:22.798Z,10.41
2018-09-24T14:02:56.755Z,10.41
2018-09-24T14:05:30.715Z,10.53
2018-09-24T14:08:05.261Z,10.65
2018-09-24T14:10:51.277Z,10.95
2018-09-24T14:13:25.386Z,11.11
2018-09-24T14:15:59.473Z,11.61
2018-09-24T14:18:33.536Z,11.67
2018-09-24T14:21:07.564Z,11.46
2018-09-24T14:23:41.667Z,11.59
2018-09-24T14:26:15.823Z,11.41
2018-09-24T14:28:49.751Z,11.21
2018-09-24T14:31:23.741Z,10.84
2018-09-24T14:33:57.808Z,10.31
2018-09-24T14:36:31.974Z,10.01
2018-09-24T14:39:06.768Z,10.03
2018-09-24T14:41:41.251Z,10.28
2018-09-24T14:44:15.337Z,10.63
2018-09-24T14:46:49.524Z,10.91
2018-09-24T14:49:23.588Z,10.73
2018-09-24T14:51:57.510Z,10.48
2018-09-24T14:54:31.577Z,10.26
2018-09-24T14:57:05.612Z,10.14
2018-09-24T14:59:40.068Z,10.12
2018-09-24T15:02:14.900Z,10.23
2018-09-24T15:04:48.954Z,10.11
2018-09-24T15:07:22.855Z,10.14
2018-09-24T15:09:56.845Z,10.04
2018-09-24T15:12:30.967Z,9.87
2018-09-24T15:15:05.658Z,9.80
2018-09-24T15:17:39.700Z,9.81
2018-09-24T15:20:14.397Z,9.85
2018-09-24T15:22:48.506Z,9.94
2018-09-24T15:25:22.582Z,9.99
2018-09-24T15:27:57.166Z,10.03
2018-09-24T15:30:31.320Z,10.08
2018-09-24T15:33:05.436Z,10.13
2018-09-24T15:35:39.634Z,10.24
2018-09-24T15:38:13.577Z,10.21
2018-09-24T15:40:47.667Z,10.42
2018-09-24T15:43:21.579Z,10.64
2018-09-24T15:45:55.596Z,10.71
2018-09-24T15:48:29.637Z,10.58
2018-09-24T15:51:03.562Z,10.56
2018-09-24T15:53:38.303Z,10.68
2018-09-24T15:56:12.413Z,10.59
2018-09-24T15:58:46.720Z,10.52
2018-09-24T16:01:22.362Z,10.64
2018-09-24T16:03:56.528Z,10.64
2018-09-24T16:06:30.996Z,10.58
2018-09-24T16:09:05.486Z,10.52
2018-09-24T16:11:40.239Z,10.41
2018-09-24T16:14:14.083Z,10.33
2018-09-24T16:16:47.928Z,10.15
2018-09-24T16:19:23.057Z,10.10
2018-09-24T16:21:57.084Z,10.05
2018-09-24T16:24:31.010Z,9.91
2018-09-24T16:27:05.088Z,9.89
2018-09-24T16:29:40.135Z,10.03
2018-09-24T16:32:14.189Z,9.89
2018-09-24T16:34:48.404Z,9.81
2018-09-24T16:37:22.513Z,9.77
2018-09-24T16:39:57.436Z,9.74
2018-09-24T16:42:31.490Z,9.75
2018-09-24T16:45:06.935Z,9.73
2018-09-24T16:47:40.816Z,9.74
2018-09-24T16:50:16.114Z,9.68
2018-09-24T16:52:50.223Z,9.72
2018-09-24T16:55:24.092Z,9.71
2018-09-24T16:57:58.327Z,9.70
2018-09-24T17:00:32.494Z,9.70
2018-09-24T17:03:06.358Z,9.74
2018-09-24T17:05:40.505Z,9.68
2018-09-24T17:08:14.385Z,9.66
2018-09-24T17:10:48.463Z,9.77
2018-09-24T17:13:22.524Z,9.79
2018-09-24T17:15:56.633Z,9.78
2018-09-24T17:18:30.524Z,9.82
2018-09-24T17:21:04.960Z,9.80
2018-09-24T17:23:38.925Z,9.82
2018-09-24T17:26:12.886Z,9.82
2018-09-24T17:28:46.681Z,9.80
2018-09-24T17:31:20.872Z,9.77
2018-09-24T17:33:55.219Z,9.72
2018-09-24T17:36:29.462Z,9.76
2018-09-24T17:39:03.659Z,9.74
2018-09-24T17:41:44.683Z,9.75
2018-09-24T17:44:18.654Z,9.68
2018-09-24T17:46:52.763Z,9.57
2018-09-24T17:49:26.766Z,9.56
2018-09-24T17:52:00.817Z,9.52
2018-09-24T17:54:35.756Z,9.43
2018-09-24T17:57:09.781Z,9.43
2018-09-24T17:59:44.161Z,9.37
2018-09-24T18:02:18.877Z,9.31
2018-09-24T18:04:52.808Z,9.27
2018-09-24T18:07:26.727Z,9.26
2018-09-24T18:10:00.721Z,9.21
2018-09-24T18:12:34.831Z,9.13
2018-09-24T18:15:08.941Z,9.10
2018-09-24T18:17:42.953Z,9.03
2018-09-24T18:20:17.017Z,9.04
2018-09-24T18:22:51.063Z,9.11
2018-09-24T18:25:24.942Z,9.18
2018-09-24T18:27:59.259Z,9.21
2018-09-24T18:30:33.020Z,9.31
2018-09-24T18:33:06.981Z,9.32
2018-09-24T18:35:42.357Z,9.31
2018-09-24T18:38:16.287Z,9.34
2018-09-24T18:40:50.371Z,9.33
2018-09-24T18:43:24.493Z,9.25
2018-09-24T18:45:58.383Z,9.18
2018-09-24T18:48:33.382Z,9.18
2018-09-24T18:51:07.672Z,9.14
2018-09-24T18:53:41.892Z,9.09
2018-09-24T18:56:16.150Z,9.04
2018-09-24T18:58:50.154Z,9.01
2018-09-24T19:01:25.310Z,9.01
2018-09-24T19:04:00.648Z,8.96
2018-09-24T19:06:34.739Z,8.87
2018-09-24T19:09:09.510Z,8.91
2018-09-24T19:11:45.072Z,8.93
2018-09-24T19:14:19.006Z,8.81
2018-09-24T19:16:53.169Z,8.82
2018-09-24T19:19:29.577Z,8.79
2018-09-24T19:22:04.126Z,8.81
2018-09-24T19:24:38.311Z,8.75
2018-09-24T19:27:13.257Z,8.68
2018-09-24T19:29:49.228Z,8.66
2018-09-24T19:32:26.664Z,8.60
2018-09-24T19:35:02.853Z,8.57
2018-09-24T19:37:37.677Z,8.53
2018-09-24T19:40:13.119Z,8.46
2018-09-24T19:42:49.746Z,8.39
2018-09-24T19:45:25.652Z,8.33
2018-09-24T19:48:00.446Z,8.26
2018-09-24T19:50:37.759Z,8.23
2018-09-24T19:53:12.250Z,8.24
2018-09-24T19:55:46.496Z,8.15
2018-09-24T19:58:26.638Z,8.15
2018-09-24T20:01:03.232Z,8.10
2018-09-24T20:03:38.036Z,8.04
2018-09-24T20:06:11.960Z,8.07
2018-09-24T20:08:46.475Z,8.08
2018-09-24T20:11:21.715Z,8.03
2018-09-24T20:13:55.516Z,8.06
2018-09-24T20:16:29.514Z,8.07
2018-09-24T20:19:03.628Z,8.06
2018-09-24T20:21:38.557Z,8.00
2018-09-24T20:24:12.723Z,8.05
2018-09-24T20:26:46.743Z,8.13
2018-09-24T20:29:20.582Z,8.12
2018-09-24T20:31:54.646Z,8.10
2018-09-24T20:37:09.849Z,8.05
2018-09-24T20:39:43.908Z,8.02
2018-09-24T20:42:18.056Z,7.98
2018-09-24T20:47:42.021Z,8.04
2018-09-24T20:50:15.910Z,8.07
2018-09-24T20:52:49.879Z,8.03
2018-09-24T20:55:23.623Z,7.98
2018-09-24T20:57:57.498Z,7.96
2018-09-24T21:00:31.397Z,7.92
2018-09-24T21:03:05.228Z,7.86
2018-09-24T21:05:39.307Z,7.83
2018-09-24T21:08:13.328Z,7.79
2018-09-24T21:10:47.328Z,7.71
2018-09-24T21:13:21.415Z,7.73
2018-09-24T21:15:55.710Z,7.76
2018-09-24T21:18:30.516Z,7.67
2018-09-24T21:21:08.878Z,7.64
2018-09-24T21:23:43.269Z,7.66
2018-09-24T21:26:18.747Z,7.62
2018-09-24T21:28:52.892Z,7.61
2018-09-24T21:31:27.284Z,7.57
2018-09-24T21:34:01.385Z,7.57
2018-09-24T21:36:35.265Z,7.55
2018-09-24T21:39:09.462Z,7.50
2018-09-24T21:41:44.306Z,7.50
2018-09-24T21:44:18.817Z,7.55
2018-09-24T21:46:52.964Z,7.55
2018-09-24T21:49:27.660Z,7.56
2018-09-24T21:52:03.242Z,7.56
2018-09-24T21:54:39.023Z,7.57
2018-09-24T21:57:13.027Z,7.53
2018-09-24T21:59:48.498Z,7.50
2018-09-24T22:02:22.727Z,7.48
2018-09-24T22:04:57.120Z,7.47
2018-09-24T22:07:32.799Z,7.51
2018-09-24T22:10:06.693Z,7.47
2018-09-24T22:12:40.837Z,7.46
2018-09-24T22:15:14.963Z,7.44
2018-09-24T22:17:49.203Z,7.44
2018-09-24T22:20:23.270Z,7.42
2018-09-24T22:22:57.360Z,7.40
2018-09-24T22:25:31.305Z,7.35
2018-09-24T22:28:05.247Z,7.40
2018-09-24T22:30:39.416Z,7.42
2018-09-24T22:33:13.335Z,7.41
2018-09-24T22:35:47.706Z,7.41
2018-09-24T22:38:21.507Z,7.39
2018-09-24T22:40:55.462Z,7.36
2018-09-24T22:43:29.539Z,7.43
2018-09-24T22:46:03.558Z,7.49
2018-09-24T22:48:37.472Z,7.50
2018-09-24T22:51:11.631Z,7.52
2018-09-24T22:53:45.971Z,7.51
2018-09-24T22:56:20.087Z,7.52
2018-09-24T22:58:54.159Z,7.48
2018-09-24T23:01:28.514Z,7.44
2018-09-24T23:04:02.605Z,7.42
2018-09-24T23:06:36.548Z,7.44
2018-09-24T23:09:13.097Z,7.39
2018-09-24T23:11:47.307Z,7.39
2018-09-24T23:14:21.312Z,7.34
2018-09-24T23:16:55.220Z,7.35
2018-09-24T23:19:29.396Z,7.35
2018-09-24T23:22:03.406Z,7.33
2018-09-24T23:24:37.396Z,7.36
2018-09-24T23:27:11.645Z,7.40
2018-09-24T23:29:47.518Z,7.44
2018-09-24T23:32:21.717Z,7.39
2018-09-24T23:34:55.792Z,7.32
2018-09-24T23:37:29.718Z,7.33
2018-09-24T23:40:03.753Z,7.28
2018-09-24T23:42:37.736Z,7.23
2018-09-24T23:45:12.350Z,7.25
2018-09-24T23:47:46.300Z,7.24
2018-09-24T23:50:20.585Z,7.25
2018-09-24T23:53:07.759Z,7.17
2018-09-24T23:55:42.102Z,7.12
2018-09-24T23:58:16.108Z,7.12
